sensor_id;sensor_type;location;lat;lon;timestamp;pressure;altitude;pressure_sealevel;temperature;humidity
35226;BME280;21813;49.686;21.766;2023-06-10T00:01:15;98078.59;;;16.19;100.00
35226;BME280;21813;49.686;21.766;2023-06-10T00:03:42;98077.00;;;16.18;100.00
35226;BME280;21813;49.686;21.766;2023-06-10T00:06:09;98067.75;;;16.14;100.00
35226;BME280;21813;49.686;21.766;2023-06-10T00:08:34;98064.50;;;16.12;100.00
35226;BME280;21813;49.686;21.766;2023-06-10T00:11:00;98074.03;;;16.13;100.00
35226;BME280;21813;49.686;21.766;2023-06-10T00:13:26;98075.81;;;16.21;100.00
35226;BME280;21813;49.686;21.766;2023-06-10T00:15:52;98076.81;;;16.20;100.00
35226;BME280;21813;49.686;21.766;2023-06-10T00:18:17;98067.44;;;16.17;100.00
35226;BME280;21813;49.686;21.766;2023-06-10T00:20:43;98070.38;;;16.14;100.00
35226;BME280;21813;49.686;21.766;2023-06-10T00:23:09;98079.94;;;16.15;100.00
35226;BME280;21813;49.686;21.766;2023-06-10T00:25:35;98086.16;;;16.14;100.00
35226;BME280;21813;49.686;21.766;2023-06-10T00:28:01;98079.44;;;16.12;100.00
35226;BME280;21813;49.686;21.766;2023-06-10T00:30:27;98073.34;;;16.11;100.00
35226;BME280;21813;49.686;21.766;2023-06-10T00:32:52;98071.22;;;16.07;100.00
35226;BME280;21813;49.686;21.766;2023-06-10T00:35:18;98062.84;;;16.03;100.00
35226;BME280;21813;49.686;21.766;2023-06-10T00:37:44;98086.16;;;16.14;100.00
35226;BME280;21813;49.686;21.766;2023-06-10T00:40:12;98065.28;;;16.05;100.00
35226;BME280;21813;49.686;21.766;2023-06-10T00:42:38;98081.75;;;15.99;100.00
35226;BME280;21813;49.686;21.766;2023-06-10T00:45:05;98075.66;;;15.90;100.00
35226;BME280;21813;49.686;21.766;2023-06-10T00:47:31;98071.03;;;15.92;100.00
35226;BME280;21813;49.686;21.766;2023-06-10T00:49:57;98088.94;;;15.97;100.00
35226;BME280;21813;49.686;21.766;2023-06-10T00:52:27;98081.25;;;15.95;100.00
35226;BME280;21813;49.686;21.766;2023-06-10T00:54:54;98087.47;;;15.94;100.00
35226;BME280;21813;49.686;21.766;2023-06-10T00:57:20;98074.00;;;15.81;100.00
35226;BME280;21813;49.686;21.766;2023-06-10T00:59:48;98080.25;;;15.88;100.00
35226;BME280;21813;49.686;21.766;2023-06-10T01:02:14;98074.97;;;15.80;100.00
35226;BME280;21813;49.686;21.766;2023-06-10T01:04:40;98080.06;;;15.81;100.00
35226;BME280;21813;49.686;21.766;2023-06-10T01:10:01;98081.69;;;15.82;100.00
35226;BME280;21813;49.686;21.766;2023-06-10T01:12:34;98088.75;;;15.82;100.00
35226;BME280;21813;49.686;21.766;2023-06-10T01:15:05;98088.44;;;15.77;100.00
35226;BME280;21813;49.686;21.766;2023-06-10T01:17:31;98080.72;;;15.75;100.00
35226;BME280;21813;49.686;21.766;2023-06-10T01:19:57;98086.81;;;15.76;100.00
35226;BME280;21813;49.686;21.766;2023-06-10T01:22:24;98076.94;;;15.70;100.00
35226;BME280;21813;49.686;21.766;2023-06-10T01:24:52;98087.63;;;15.76;100.00
35226;BME280;21813;49.686;21.766;2023-06-10T01:27:19;98079.41;;;15.71;100.00
35226;BME280;21813;49.686;21.766;2023-06-10T01:29:59;98088.44;;;15.77;100.00
35226;BME280;21813;49.686;21.766;2023-06-10T01:32:40;98093.38;;;15.80;100.00
35226;BME280;21813;49.686;21.766;2023-06-10T01:35:10;98095.66;;;15.75;100.00
35226;BME280;21813;49.686;21.766;2023-06-10T01:37:43;98097.63;;;15.73;100.00
35226;BME280;21813;49.686;21.766;2023-06-10T01:40:11;98092.03;;;15.68;100.00
35226;BME280;21813;49.686;21.766;2023-06-10T01:42:38;98077.34;;;15.49;100.00
35226;BME280;21813;49.686;21.766;2023-06-10T01:45:05;98075.59;;;15.58;100.00
35226;BME280;21813;49.686;21.766;2023-06-10T01:47:34;98103.69;;;15.73;100.00
35226;BME280;21813;49.686;21.766;2023-06-10T01:50:03;98058.53;;;15.54;100.00
35226;BME280;21813;49.686;21.766;2023-06-10T01:52:28;98048.63;;;15.47;100.00
35226;BME280;21813;49.686;21.766;2023-06-10T01:54:56;98046.00;;;15.47;100.00
35226;BME280;21813;49.686;21.766;2023-06-10T01:57:22;98092.19;;;15.66;100.00
35226;BME280;21813;49.686;21.766;2023-06-10T01:59:49;98108.47;;;15.70;100.00
35226;BME280;21813;49.686;21.766;2023-06-10T02:02:14;98108.47;;;15.70;100.00
35226;BME280;21813;49.686;21.766;2023-06-10T02:04:41;98104.84;;;15.71;100.00
35226;BME280;21813;49.686;21.766;2023-06-10T02:07:06;98087.78;;;15.67;100.00
35226;BME280;21813;49.686;21.766;2023-06-10T02:09:34;98091.72;;;15.71;100.00
35226;BME280;21813;49.686;21.766;2023-06-10T02:12:03;98084.13;;;15.68;100.00
35226;BME280;21813;49.686;21.766;2023-06-10T02:14:31;98089.09;;;15.71;100.00
35226;BME280;21813;49.686;21.766;2023-06-10T02:16:57;98096.31;;;15.69;100.00
35226;BME280;21813;49.686;21.766;2023-06-10T02:19:25;98092.03;;;15.68;100.00
35226;BME280;21813;49.686;21.766;2023-06-10T02:21:52;98094.97;;;15.65;100.00
35226;BME280;21813;49.686;21.766;2023-06-10T02:24:20;98091.03;;;15.69;100.00
35226;BME280;21813;49.686;21.766;2023-06-10T02:26:45;98096.63;;;15.66;100.00
35226;BME280;21813;49.686;21.766;2023-06-10T02:29:13;98098.59;;;15.64;100.00
35226;BME280;21813;49.686;21.766;2023-06-10T02:31:39;98100.06;;;15.58;100.00
35226;BME280;21813;49.686;21.766;2023-06-10T02:34:06;98112.03;;;15.53;100.00
35226;BME280;21813;49.686;21.766;2023-06-10T02:36:32;98104.06;;;15.36;100.00
35226;BME280;21813;49.686;21.766;2023-06-10T02:39:02;98112.25;;;15.33;100.00
35226;BME280;21813;49.686;21.766;2023-06-10T02:41:28;98111.28;;;15.34;100.00
35226;BME280;21813;49.686;21.766;2023-06-10T02:43:55;98115.53;;;15.35;100.00
35226;BME280;21813;49.686;21.766;2023-06-10T02:46:21;98100.47;;;15.37;100.00
35226;BME280;21813;49.686;21.766;2023-06-10T02:48:48;98104.41;;;15.41;100.00
35226;BME280;21813;49.686;21.766;2023-06-10T02:51:14;98107.72;;;15.43;100.00
35226;BME280;21813;49.686;21.766;2023-06-10T02:53:41;98115.41;;;15.45;100.00
35226;BME280;21813;49.686;21.766;2023-06-10T02:56:07;98112.63;;;15.46;100.00
35226;BME280;21813;49.686;21.766;2023-06-10T02:58:33;98121.72;;;15.52;100.00
35226;BME280;21813;49.686;21.766;2023-06-10T03:00:59;98123.53;;;15.52;100.00
35226;BME280;21813;49.686;21.766;2023-06-10T03:03:26;98115.25;;;15.46;100.00
35226;BME280;21813;49.686;21.766;2023-06-10T03:05:53;98119.84;;;15.44;100.00
35226;BME280;21813;49.686;21.766;2023-06-10T03:08:19;98114.09;;;15.41;100.00
35226;BME280;21813;49.686;21.766;2023-06-10T03:10:45;98101.09;;;15.31;100.00
35226;BME280;21813;49.686;21.766;2023-06-10T03:13:11;98106.38;;;15.39;100.00
35226;BME280;21813;49.686;21.766;2023-06-10T03:15:36;98101.75;;;15.33;100.00
35226;BME280;21813;49.686;21.766;2023-06-10T03:18:04;98114.09;;;15.41;100.00
35226;BME280;21813;49.686;21.766;2023-06-10T03:20:32;98121.50;;;15.45;100.00
35226;BME280;21813;49.686;21.766;2023-06-10T03:23:04;98113.09;;;15.42;100.00
35226;BME280;21813;49.686;21.766;2023-06-10T03:25:32;98126.16;;;15.52;100.00
35226;BME280;21813;49.686;21.766;2023-06-10T03:27:58;98113.84;;;15.52;100.00
35226;BME280;21813;49.686;21.766;2023-06-10T03:30:24;98127.47;;;15.56;100.00
35226;BME280;21813;49.686;21.766;2023-06-10T03:32:51;98138.66;;;15.58;100.00
35226;BME280;21813;49.686;21.766;2023-06-10T03:35:17;98126.16;;;15.52;100.00
35226;BME280;21813;49.686;21.766;2023-06-10T03:37:45;98135.03;;;15.59;100.00
35226;BME280;21813;49.686;21.766;2023-06-10T03:40:11;98122.06;;;15.57;100.00
35226;BME280;21813;49.686;21.766;2023-06-10T03:42:37;98130.44;;;15.61;100.00
35226;BME280;21813;49.686;21.766;2023-06-10T03:45:03;98130.44;;;15.61;100.00
35226;BME280;21813;49.686;21.766;2023-06-10T03:47:37;98136.19;;;15.64;100.00
35226;BME280;21813;49.686;21.766;2023-06-10T03:50:03;98118.63;;;15.57;100.00
35226;BME280;21813;49.686;21.766;2023-06-10T03:52:30;98129.81;;;15.67;100.00
35226;BME280;21813;49.686;21.766;2023-06-10T03:54:56;98130.47;;;15.69;100.00
35226;BME280;21813;49.686;21.766;2023-06-10T03:57:22;98118.78;;;15.63;100.00
35226;BME280;21813;49.686;21.766;2023-06-10T03:59:47;98126.50;;;15.65;100.00
35226;BME280;21813;49.686;21.766;2023-06-10T04:02:13;98118.97;;;15.70;100.00
35226;BME280;21813;49.686;21.766;2023-06-10T04:04:39;98131.78;;;15.73;100.00
35226;BME280;21813;49.686;21.766;2023-06-10T04:07:05;98129.34;;;15.71;100.00
35226;BME280;21813;49.686;21.766;2023-06-10T04:09:30;98140.84;;;15.78;100.00
35226;BME280;21813;49.686;21.766;2023-06-10T04:11:58;98120.44;;;15.72;100.00
35226;BME280;21813;49.686;21.766;2023-06-10T04:14:23;98137.88;;;15.81;100.00
35226;BME280;21813;49.686;21.766;2023-06-10T04:16:50;98138.41;;;15.85;100.00
35226;BME280;21813;49.686;21.766;2023-06-10T04:19:16;98130.81;;;15.82;100.00
35226;BME280;21813;49.686;21.766;2023-06-10T04:21:42;98130.50;;;15.85;100.00
35226;BME280;21813;49.686;21.766;2023-06-10T04:24:08;98136.94;;;15.90;100.00
35226;BME280;21813;49.686;21.766;2023-06-10T04:26:35;98122.97;;;15.90;100.00
35226;BME280;21813;49.686;21.766;2023-06-10T04:29:01;98126.25;;;15.92;100.00
35226;BME280;21813;49.686;21.766;2023-06-10T04:31:27;98120.50;;;15.97;100.00
35226;BME280;21813;49.686;21.766;2023-06-10T04:33:53;98139.09;;;16.11;100.00
35226;BME280;21813;49.686;21.766;2023-06-10T04:36:19;98137.78;;;16.15;100.00
35226;BME280;21813;49.686;21.766;2023-06-10T04:38:45;98123.97;;;16.13;100.00
35226;BME280;21813;49.686;21.766;2023-06-10T04:41:13;98106.38;;;15.98;100.00
35226;BME280;21813;49.686;21.766;2023-06-10T04:43:40;98115.25;;;16.05;100.00
35226;BME280;21813;49.686;21.766;2023-06-10T04:46:08;98132.22;;;16.18;100.00
35226;BME280;21813;49.686;21.766;2023-06-10T04:48:33;98112.78;;;16.11;100.00
35226;BME280;21813;49.686;21.766;2023-06-10T04:51:01;98147.00;;;16.35;100.00
35226;BME280;21813;49.686;21.766;2023-06-10T04:53:27;98148.94;;;16.42;100.00
35226;BME280;21813;49.686;21.766;2023-06-10T04:55:56;98109.50;;;16.25;100.00
35226;BME280;21813;49.686;21.766;2023-06-10T04:58:27;98142.72;;;16.43;100.00
35226;BME280;21813;49.686;21.766;2023-06-10T05:01:09;98116.91;;;16.38;100.00
35226;BME280;21813;49.686;21.766;2023-06-10T05:03:34;98113.44;;;16.38;100.00
35226;BME280;21813;49.686;21.766;2023-06-10T05:06:03;98134.50;;;16.46;100.00
35226;BME280;21813;49.686;21.766;2023-06-10T05:11:03;98149.31;;;16.63;100.00
35226;BME280;21813;49.686;21.766;2023-06-10T05:13:43;98160.66;;;16.71;100.00
35226;BME280;21813;49.686;21.766;2023-06-10T05:16:20;98167.38;;;16.74;100.00
35226;BME280;21813;49.686;21.766;2023-06-10T05:18:46;98163.13;;;16.73;100.00
35226;BME280;21813;49.686;21.766;2023-06-10T05:21:12;98151.31;;;16.69;100.00
35226;BME280;21813;49.686;21.766;2023-06-10T05:23:42;98169.34;;;16.88;100.00
35226;BME280;21813;49.686;21.766;2023-06-10T05:26:15;98151.59;;;16.74;100.00
35226;BME280;21813;49.686;21.766;2023-06-10T05:28:42;98169.69;;;16.85;100.00
35226;BME280;21813;49.686;21.766;2023-06-10T05:31:09;98147.19;;;16.66;100.00
35226;BME280;21813;49.686;21.766;2023-06-10T05:33:34;98161.16;;;16.83;100.00
35226;BME280;21813;49.686;21.766;2023-06-10T05:36:02;98147.34;;;16.73;100.00
35226;BME280;21813;49.686;21.766;2023-06-10T05:38:28;98169.03;;;16.91;100.00
35226;BME280;21813;49.686;21.766;2023-06-10T05:40:54;98139.28;;;16.83;100.00
35226;BME280;21813;49.686;21.766;2023-06-10T05:43:22;98154.19;;;16.98;100.00
35226;BME280;21813;49.686;21.766;2023-06-10T05:45:48;98167.84;;;17.10;100.00
35226;BME280;21813;49.686;21.766;2023-06-10T05:48:14;98161.75;;;17.09;100.00
35226;BME280;21813;49.686;21.766;2023-06-10T05:50:41;98182.09;;;17.32;100.00
35226;BME280;21813;49.686;21.766;2023-06-10T05:53:10;98176.47;;;17.35;100.00
35226;BME280;21813;49.686;21.766;2023-06-10T05:55:58;98165.13;;;17.34;100.00
35226;BME280;21813;49.686;21.766;2023-06-10T05:58:43;98180.09;;;17.42;100.00
35226;BME280;21813;49.686;21.766;2023-06-10T06:01:09;98191.06;;;17.53;100.00
35226;BME280;21813;49.686;21.766;2023-06-10T06:03:35;98158.03;;;17.43;100.00
35226;BME280;21813;49.686;21.766;2023-06-10T06:06:02;98164.41;;;17.56;100.00
35226;BME280;21813;49.686;21.766;2023-06-10T06:08:28;98166.19;;;17.64;100.00
35226;BME280;21813;49.686;21.766;2023-06-10T06:10:56;98180.38;;;17.63;100.00
35226;BME280;21813;49.686;21.766;2023-06-10T06:13:22;98168.16;;;17.62;100.00
35226;BME280;21813;49.686;21.766;2023-06-10T06:15:49;98155.34;;;17.51;100.00
35226;BME280;21813;49.686;21.766;2023-06-10T06:18:15;98171.94;;;17.67;100.00
35226;BME280;21813;49.686;21.766;2023-06-10T06:20:42;98158.75;;;17.67;100.00
35226;BME280;21813;49.686;21.766;2023-06-10T06:23:23;98188.22;;;17.79;100.00
35226;BME280;21813;49.686;21.766;2023-06-10T06:25:49;98156.16;;;17.59;100.00
35226;BME280;21813;49.686;21.766;2023-06-10T06:28:15;98188.53;;;17.84;100.00
35226;BME280;21813;49.686;21.766;2023-06-10T06:30:42;98172.91;;;17.75;100.00
35226;BME280;21813;49.686;21.766;2023-06-10T06:33:08;98180.31;;;17.79;100.00
35226;BME280;21813;49.686;21.766;2023-06-10T06:35:38;98167.94;;;17.80;100.00
35226;BME280;21813;49.686;21.766;2023-06-10T06:38:05;98160.66;;;17.82;100.00
35226;BME280;21813;49.686;21.766;2023-06-10T06:40:33;98172.81;;;17.91;100.00
35226;BME280;21813;49.686;21.766;2023-06-10T06:42:58;98167.91;;;17.88;100.00
35226;BME280;21813;49.686;21.766;2023-06-10T06:45:25;98168.25;;;17.85;100.00
35226;BME280;21813;49.686;21.766;2023-06-10T06:47:51;98167.53;;;17.91;100.00
35226;BME280;21813;49.686;21.766;2023-06-10T06:50:17;98176.41;;;17.98;100.00
35226;BME280;21813;49.686;21.766;2023-06-10T06:52:43;98198.22;;;18.15;100.00
35226;BME280;21813;49.686;21.766;2023-06-10T06:55:22;98168.84;;;17.95;100.00
35226;BME280;21813;49.686;21.766;2023-06-10T06:57:48;98188.19;;;18.10;100.00
35226;BME280;21813;49.686;21.766;2023-06-10T07:00:15;98173.56;;;18.07;100.00
35226;BME280;21813;49.686;21.766;2023-06-10T07:02:40;98156.72;;;18.08;100.00
35226;BME280;21813;49.686;21.766;2023-06-10T07:05:08;98178.72;;;18.24;100.00
35226;BME280;21813;49.686;21.766;2023-06-10T07:07:33;98185.06;;;18.37;100.00
35226;BME280;21813;49.686;21.766;2023-06-10T07:10:01;98174.94;;;18.41;100.00
35226;BME280;21813;49.686;21.766;2023-06-10T07:12:27;98192.00;;;18.61;100.00
35226;BME280;21813;49.686;21.766;2023-06-10T07:14:54;98174.72;;;18.50;100.00
35226;BME280;21813;49.686;21.766;2023-06-10T07:17:25;98184.72;;;18.63;100.00
35226;BME280;21813;49.686;21.766;2023-06-10T07:19:58;98200.06;;;18.82;100.00
35226;BME280;21813;49.686;21.766;2023-06-10T07:22:36;98161.88;;;18.70;100.00
35226;BME280;21813;49.686;21.766;2023-06-10T07:25:14;98174.13;;;18.86;100.00
35226;BME280;21813;49.686;21.766;2023-06-10T07:27:41;98190.34;;;18.97;100.00
35226;BME280;21813;49.686;21.766;2023-06-10T07:30:11;98202.75;;;19.12;100.00
35226;BME280;21813;49.686;21.766;2023-06-10T07:32:37;98208.88;;;19.12;100.00
35226;BME280;21813;49.686;21.766;2023-06-10T07:35:14;98198.47;;;19.11;100.00
35226;BME280;21813;49.686;21.766;2023-06-10T07:37:39;98186.00;;;19.05;100.00
35226;BME280;21813;49.686;21.766;2023-06-10T07:40:07;98179.16;;;18.95;100.00
35226;BME280;21813;49.686;21.766;2023-06-10T07:42:36;98182.72;;;19.03;100.00
35226;BME280;21813;49.686;21.766;2023-06-10T07:45:04;98201.41;;;19.16;100.00
35226;BME280;21813;49.686;21.766;2023-06-10T07:47:30;98180.81;;;19.11;100.00
35226;BME280;21813;49.686;21.766;2023-06-10T07:50:07;98185.91;;;19.13;100.00
35226;BME280;21813;49.686;21.766;2023-06-10T07:52:32;98191.75;;;19.23;100.00
35226;BME280;21813;49.686;21.766;2023-06-10T07:55:03;98207.97;;;19.20;100.00
35226;BME280;21813;49.686;21.766;2023-06-10T07:57:33;98187.28;;;19.09;100.00
35226;BME280;21813;49.686;21.766;2023-06-10T08:00:10;98222.66;;;19.37;100.00
35226;BME280;21813;49.686;21.766;2023-06-10T08:02:35;98196.41;;;19.21;100.00
35226;BME280;21813;49.686;21.766;2023-06-10T08:05:04;98195.66;;;19.12;100.00
35226;BME280;21813;49.686;21.766;2023-06-10T08:07:30;98231.41;;;19.23;100.00
35226;BME280;21813;49.686;21.766;2023-06-10T08:09:57;98192.28;;;19.04;100.00
35226;BME280;21813;49.686;21.766;2023-06-10T08:12:23;98210.22;;;19.08;100.00
35226;BME280;21813;49.686;21.766;2023-06-10T08:14:50;98215.88;;;19.20;100.00
35226;BME280;21813;49.686;21.766;2023-06-10T08:17:16;98187.88;;;18.96;100.00
35226;BME280;21813;49.686;21.766;2023-06-10T08:19:43;98227.47;;;19.19;100.00
35226;BME280;21813;49.686;21.766;2023-06-10T08:22:08;98202.84;;;19.04;100.00
35226;BME280;21813;49.686;21.766;2023-06-10T08:24:40;98219.59;;;19.11;100.00
35226;BME280;21813;49.686;21.766;2023-06-10T08:27:06;98231.75;;;19.20;100.00
35226;BME280;21813;49.686;21.766;2023-06-10T08:29:33;98222.19;;;19.19;100.00
35226;BME280;21813;49.686;21.766;2023-06-10T08:31:58;98193.56;;;19.08;100.00
35226;BME280;21813;49.686;21.766;2023-06-10T08:34:25;98237.88;;;19.35;100.00
35226;BME280;21813;49.686;21.766;2023-06-10T08:36:51;98219.47;;;19.27;100.00
35226;BME280;21813;49.686;21.766;2023-06-10T08:39:20;98236.00;;;19.44;100.00
35226;BME280;21813;49.686;21.766;2023-06-10T08:42:04;98226.25;;;19.44;100.00
35226;BME280;21813;49.686;21.766;2023-06-10T08:44:35;98232.63;;;19.50;100.00
35226;BME280;21813;49.686;21.766;2023-06-10T08:47:08;98234.06;;;19.52;100.00
35226;BME280;21813;49.686;21.766;2023-06-10T08:49:42;98228.75;;;19.37;100.00
35226;BME280;21813;49.686;21.766;2023-06-10T08:52:12;98222.72;;;19.29;100.00
35226;BME280;21813;49.686;21.766;2023-06-10T08:54:52;98199.75;;;19.15;100.00
35226;BME280;21813;49.686;21.766;2023-06-10T08:57:18;98199.41;;;19.18;100.00
35226;BME280;21813;49.686;21.766;2023-06-10T08:59:48;98200.13;;;19.12;100.00
35226;BME280;21813;49.686;21.766;2023-06-10T09:02:15;98239.06;;;19.32;100.00
35226;BME280;21813;49.686;21.766;2023-06-10T09:04:42;98216.91;;;19.19;100.00
35226;BME280;21813;49.686;21.766;2023-06-10T09:07:10;98205.53;;;19.18;100.00
35226;BME280;21813;49.686;21.766;2023-06-10T09:09:37;98221.72;;;19.30;100.00
35226;BME280;21813;49.686;21.766;2023-06-10T09:12:04;98237.63;;;19.45;100.00
35226;BME280;21813;49.686;21.766;2023-06-10T09:14:31;98213.81;;;19.30;100.00
35226;BME280;21813;49.686;21.766;2023-06-10T09:16:57;98228.72;;;19.46;100.00
35226;BME280;21813;49.686;21.766;2023-06-10T09:19:28;98202.31;;;19.37;100.00
35226;BME280;21813;49.686;21.766;2023-06-10T09:21:54;98216.50;;;19.45;100.00
35226;BME280;21813;49.686;21.766;2023-06-10T09:24:22;98236.81;;;19.59;100.00
35226;BME280;21813;49.686;21.766;2023-06-10T09:26:49;98242.72;;;19.61;100.00
35226;BME280;21813;49.686;21.766;2023-06-10T09:29:18;98219.75;;;19.61;100.00
35226;BME280;21813;49.686;21.766;2023-06-10T09:31:44;98238.09;;;19.77;100.00
35226;BME280;21813;49.686;21.766;2023-06-10T09:34:12;98207.81;;;19.65;100.00
35226;BME280;21813;49.686;21.766;2023-06-10T09:36:39;98218.66;;;19.70;100.00
35226;BME280;21813;49.686;21.766;2023-06-10T09:39:16;98205.81;;;19.67;100.00
35226;BME280;21813;49.686;21.766;2023-06-10T09:41:43;98240.78;;;19.99;100.00
35226;BME280;21813;49.686;21.766;2023-06-10T09:44:14;98237.25;;;19.92;100.00
35226;BME280;21813;49.686;21.766;2023-06-10T09:46:41;98195.78;;;19.77;100.00
35226;BME280;21813;49.686;21.766;2023-06-10T09:49:08;98236.16;;;20.01;100.00
35226;BME280;21813;49.686;21.766;2023-06-10T09:51:33;98238.34;;;19.97;100.00
35226;BME280;21813;49.686;21.766;2023-06-10T09:54:04;98197.16;;;19.73;100.00
35226;BME280;21813;49.686;21.766;2023-06-10T09:56:36;98235.78;;;20.04;100.00
35226;BME280;21813;49.686;21.766;2023-06-10T09:59:04;98208.50;;;19.89;100.00
35226;BME280;21813;49.686;21.766;2023-06-10T10:01:31;98210.28;;;19.81;100.00
35226;BME280;21813;49.686;21.766;2023-06-10T10:04:00;98235.41;;;20.07;100.00
35226;BME280;21813;49.686;21.766;2023-06-10T10:06:27;98228.22;;;20.01;100.00
35226;BME280;21813;49.686;21.766;2023-06-10T10:08:56;98195.66;;;19.85;100.00
35226;BME280;21813;49.686;21.766;2023-06-10T10:11:26;98201.06;;;19.92;100.00
35226;BME280;21813;49.686;21.766;2023-06-10T10:13:55;98201.22;;;19.91;100.00
35226;BME280;21813;49.686;21.766;2023-06-10T10:16:29;98200.84;;;19.94;100.00
35226;BME280;21813;49.686;21.766;2023-06-10T10:19:04;98218.25;;;20.03;100.00
35226;BME280;21813;49.686;21.766;2023-06-10T10:21:37;98241.47;;;20.22;100.00
35226;BME280;21813;49.686;21.766;2023-06-10T10:24:12;98222.44;;;20.12;100.00
35226;BME280;21813;49.686;21.766;2023-06-10T10:26:41;98205.41;;;20.00;100.00
35226;BME280;21813;49.686;21.766;2023-06-10T10:31:42;98223.50;;;20.17;100.00
35226;BME280;21813;49.686;21.766;2023-06-10T10:34:13;98248.59;;;20.36;100.00
35226;BME280;21813;49.686;21.766;2023-06-10T10:36:41;98237.28;;;20.27;100.00
35226;BME280;21813;49.686;21.766;2023-06-10T10:39:09;98229.25;;;20.21;100.00
35226;BME280;21813;49.686;21.766;2023-06-10T10:41:39;98208.06;;;20.21;100.00
35226;BME280;21813;49.686;21.766;2023-06-10T10:44:06;98201.78;;;20.22;100.00
35226;BME280;21813;49.686;21.766;2023-06-10T10:46:52;98216.47;;;20.39;99.33
35226;BME280;21813;49.686;21.766;2023-06-10T10:49:22;98219.00;;;20.47;99.64
35226;BME280;21813;49.686;21.766;2023-06-10T10:51:57;98228.81;;;20.53;100.00
35226;BME280;21813;49.686;21.766;2023-06-10T10:54:31;98235.75;;;20.54;100.00
35226;BME280;21813;49.686;21.766;2023-06-10T10:57:24;98237.50;;;20.68;100.00
35226;BME280;21813;49.686;21.766;2023-06-10T10:59:59;98213.13;;;20.52;100.00
35226;BME280;21813;49.686;21.766;2023-06-10T11:02:41;98206.88;;;20.59;100.00
35226;BME280;21813;49.686;21.766;2023-06-10T11:05:15;98207.63;;;20.75;99.97
35226;BME280;21813;49.686;21.766;2023-06-10T11:07:53;98230.44;;;20.97;100.00
35226;BME280;21813;49.686;21.766;2023-06-10T11:10:29;98240.94;;;21.11;100.00
35226;BME280;21813;49.686;21.766;2023-06-10T11:12:56;98224.09;;;21.19;100.00
35226;BME280;21813;49.686;21.766;2023-06-10T11:15:27;98226.56;;;21.48;96.63
35226;BME280;21813;49.686;21.766;2023-06-10T11:18:28;98237.22;;;21.62;96.40
35226;BME280;21813;49.686;21.766;2023-06-10T11:21:00;98237.34;;;21.47;97.29
35226;BME280;21813;49.686;21.766;2023-06-10T11:26:15;98226.25;;;21.30;96.56
35226;BME280;21813;49.686;21.766;2023-06-10T11:29:01;98221.78;;;21.37;96.17
35226;BME280;21813;49.686;21.766;2023-06-10T11:31:33;98221.94;;;21.29;95.52
35226;BME280;21813;49.686;21.766;2023-06-10T11:34:01;98195.59;;;21.21;95.37
35226;BME280;21813;49.686;21.766;2023-06-10T11:36:30;98229.72;;;21.37;95.37
35226;BME280;21813;49.686;21.766;2023-06-10T11:38:58;98217.06;;;21.33;95.87
35226;BME280;21813;49.686;21.766;2023-06-10T11:41:27;98226.38;;;21.22;94.03
35226;BME280;21813;49.686;21.766;2023-06-10T11:43:53;98214.19;;;21.06;92.68
35226;BME280;21813;49.686;21.766;2023-06-10T11:46:24;98215.34;;;21.19;94.96
35226;BME280;21813;49.686;21.766;2023-06-10T11:48:55;98207.03;;;21.28;94.20
35226;BME280;21813;49.686;21.766;2023-06-10T11:51:27;98203.63;;;21.34;95.69
35226;BME280;21813;49.686;21.766;2023-06-10T11:53:54;98212.06;;;21.44;95.34
35226;BME280;21813;49.686;21.766;2023-06-10T11:56:35;98208.25;;;21.60;94.57
35226;BME280;21813;49.686;21.766;2023-06-10T11:59:04;98182.53;;;21.54;95.14
35226;BME280;21813;49.686;21.766;2023-06-10T12:01:34;98186.59;;;21.56;94.16
35226;BME280;21813;49.686;21.766;2023-06-10T12:04:07;98155.31;;;21.39;92.38
35226;BME280;21813;49.686;21.766;2023-06-10T12:06:54;98173.13;;;21.17;93.36
35226;BME280;21813;49.686;21.766;2023-06-10T12:09:29;98158.66;;;20.92;96.03
35226;BME280;21813;49.686;21.766;2023-06-10T12:12:01;98171.88;;;21.13;96.32
35226;BME280;21813;49.686;21.766;2023-06-10T12:14:52;98190.00;;;21.44;95.87
35226;BME280;21813;49.686;21.766;2023-06-10T12:20:03;98166.69;;;21.33;94.86
35226;BME280;21813;49.686;21.766;2023-06-10T12:22:43;98149.59;;;21.35;95.32
35226;BME280;21813;49.686;21.766;2023-06-10T12:25:36;98187.31;;;21.72;95.69
35226;BME280;21813;49.686;21.766;2023-06-10T12:28:09;98154.97;;;21.55;95.12
35226;BME280;21813;49.686;21.766;2023-06-10T12:30:41;98158.84;;;21.52;93.18
35226;BME280;21813;49.686;21.766;2023-06-10T12:33:21;98172.50;;;21.49;94.45
35226;BME280;21813;49.686;21.766;2023-06-10T12:35:49;98166.47;;;21.69;94.30
35226;BME280;21813;49.686;21.766;2023-06-10T12:38:23;98182.44;;;21.82;94.42
35226;BME280;21813;49.686;21.766;2023-06-10T12:40:50;98166.63;;;21.60;91.35
35226;BME280;21813;49.686;21.766;2023-06-10T12:43:22;98191.81;;;21.78;92.28
35226;BME280;21813;49.686;21.766;2023-06-10T12:45:51;98161.09;;;21.55;92.32
35226;BME280;21813;49.686;21.766;2023-06-10T12:48:24;98163.31;;;21.52;92.10
35226;BME280;21813;49.686;21.766;2023-06-10T12:51:10;98155.72;;;21.42;92.61
35226;BME280;21813;49.686;21.766;2023-06-10T12:53:38;98187.69;;;21.69;93.22
35226;BME280;21813;49.686;21.766;2023-06-10T12:56:03;98177.88;;;21.63;92.80
35226;BME280;21813;49.686;21.766;2023-06-10T12:58:31;98176.41;;;21.60;93.92
35226;BME280;21813;49.686;21.766;2023-06-10T13:00:56;98165.09;;;21.38;94.46
35226;BME280;21813;49.686;21.766;2023-06-10T13:03:25;98166.78;;;21.18;94.13